Terminal Aerodrome Forecast
Issued by NWS

Home | Current Version | Previous Version | Text Only | Print | Product List | Glossary On
Versions: 1 2 3 4 5 6 7 8 9 10 11 12 13 14 15
000
FTUS42 KTAE 011100
TAFECP
TAF
KECP 011133Z 0112/0212 06005KT P6SM BKN030 BKN250
     FM011500 14014G20KT P6SM SCT025 BKN050
      TEMPO 0115/0118 -RA BKN025
     FM012100 16012G20KT 5SM -TSRA BR BKN025CB
     FM020000 19013KT 3SM -RA BR OVC007=

USA.gov is the U.S. government's official web portal to all federal, state and local government web resources and services.